sensor_id;sensor_type;location;lat;lon;timestamp;temperature;humidity
782;DHT22;374;52.568;13.402;2023-05-21T00:02:21;16.20;99.90
782;DHT22;374;52.568;13.402;2023-05-21T00:04:46;16.10;99.90
782;DHT22;374;52.568;13.402;2023-05-21T00:07:12;16.10;99.90
782;DHT22;374;52.568;13.402;2023-05-21T00:09:39;16.10;99.90
782;DHT22;374;52.568;13.402;2023-05-21T00:12:06;16.10;99.90
782;DHT22;374;52.568;13.402;2023-05-21T00:14:32;16.10;99.90
782;DHT22;374;52.568;13.402;2023-05-21T00:16:57;16.10;99.90
782;DHT22;374;52.568;13.402;2023-05-21T00:19:23;16.10;99.90
782;DHT22;374;52.568;13.402;2023-05-21T00:21:48;16.10;99.90
782;DHT22;374;52.568;13.402;2023-05-21T00:24:14;16.00;99.90
782;DHT22;374;52.568;13.402;2023-05-21T00:26:40;16.00;99.90
782;DHT22;374;52.568;13.402;2023-05-21T00:29:05;16.00;99.90
782;DHT22;374;52.568;13.402;2023-05-21T00:31:30;16.00;99.90
782;DHT22;374;52.568;13.402;2023-05-21T00:33:56;16.00;99.90
782;DHT22;374;52.568;13.402;2023-05-21T00:36:22;16.00;99.90
782;DHT22;374;52.568;13.402;2023-05-21T00:38:49;16.00;99.90
782;DHT22;374;52.568;13.402;2023-05-21T00:41:15;15.90;99.90
782;DHT22;374;52.568;13.402;2023-05-21T00:43:41;15.90;99.90
782;DHT22;374;52.568;13.402;2023-05-21T00:46:11;15.90;99.90
782;DHT22;374;52.568;13.402;2023-05-21T00:48:38;15.90;99.90
782;DHT22;374;52.568;13.402;2023-05-21T00:51:04;15.90;99.90
782;DHT22;374;52.568;13.402;2023-05-21T00:53:30;15.90;99.90
782;DHT22;374;52.568;13.402;2023-05-21T00:55:59;15.90;99.90
782;DHT22;374;52.568;13.402;2023-05-21T00:58:25;15.90;99.90
782;DHT22;374;52.568;13.402;2023-05-21T01:00:51;15.90;99.90
782;DHT22;374;52.568;13.402;2023-05-21T01:03:21;15.90;99.90
782;DHT22;374;52.568;13.402;2023-05-21T01:05:46;15.80;99.90
782;DHT22;374;52.568;13.402;2023-05-21T01:08:13;15.80;99.90
782;DHT22;374;52.568;13.402;2023-05-21T01:10:39;15.80;99.90
782;DHT22;374;52.568;13.402;2023-05-21T01:13:04;15.80;99.90
782;DHT22;374;52.568;13.402;2023-05-21T01:15:30;15.80;99.90
782;DHT22;374;52.568;13.402;2023-05-21T01:17:56;15.70;99.90
782;DHT22;374;52.568;13.402;2023-05-21T01:20:22;15.70;99.90
782;DHT22;374;52.568;13.402;2023-05-21T01:22:54;15.70;99.90
782;DHT22;374;52.568;13.402;2023-05-21T01:25:21;15.70;99.90
782;DHT22;374;52.568;13.402;2023-05-21T01:27:47;15.70;99.90
782;DHT22;374;52.568;13.402;2023-05-21T01:30:14;15.70;99.90
782;DHT22;374;52.568;13.402;2023-05-21T01:32:53;15.70;99.90
782;DHT22;374;52.568;13.402;2023-05-21T01:35:25;15.70;99.90
782;DHT22;374;52.568;13.402;2023-05-21T01:40:35;15.70;99.90
782;DHT22;374;52.568;13.402;2023-05-21T01:43:02;15.60;99.90
782;DHT22;374;52.568;13.402;2023-05-21T01:45:31;15.60;99.90
782;DHT22;374;52.568;13.402;2023-05-21T01:47:57;15.60;99.90
782;DHT22;374;52.568;13.402;2023-05-21T01:50:23;15.60;99.90
782;DHT22;374;52.568;13.402;2023-05-21T01:52:56;15.60;99.90
782;DHT22;374;52.568;13.402;2023-05-21T01:55:22;15.60;99.90
782;DHT22;374;52.568;13.402;2023-05-21T01:57:54;15.60;99.90
782;DHT22;374;52.568;13.402;2023-05-21T02:00:21;15.60;99.90
782;DHT22;374;52.568;13.402;2023-05-21T02:02:48;15.60;99.90
782;DHT22;374;52.568;13.402;2023-05-21T02:05:13;15.60;99.90
782;DHT22;374;52.568;13.402;2023-05-21T02:07:39;15.60;99.90
782;DHT22;374;52.568;13.402;2023-05-21T02:10:06;15.60;99.90
782;DHT22;374;52.568;13.402;2023-05-21T02:12:32;15.60;99.90
782;DHT22;374;52.568;13.402;2023-05-21T02:14:58;15.60;99.90
782;DHT22;374;52.568;13.402;2023-05-21T02:17:24;15.50;99.90
782;DHT22;374;52.568;13.402;2023-05-21T02:19:50;15.50;99.90
782;DHT22;374;52.568;13.402;2023-05-21T02:22:16;15.50;99.90
782;DHT22;374;52.568;13.402;2023-05-21T02:24:41;15.40;99.90
782;DHT22;374;52.568;13.402;2023-05-21T02:27:07;15.50;99.90
782;DHT22;374;52.568;13.402;2023-05-21T02:29:35;15.40;99.90
782;DHT22;374;52.568;13.402;2023-05-21T02:32:00;15.50;99.90
782;DHT22;374;52.568;13.402;2023-05-21T02:34:26;15.40;99.90
782;DHT22;374;52.568;13.402;2023-05-21T02:36:54;15.40;99.90
782;DHT22;374;52.568;13.402;2023-05-21T02:39:20;15.40;99.90
782;DHT22;374;52.568;13.402;2023-05-21T02:41:45;15.40;99.90
782;DHT22;374;52.568;13.402;2023-05-21T02:44:11;15.40;99.90
782;DHT22;374;52.568;13.402;2023-05-21T02:46:37;15.40;99.90
782;DHT22;374;52.568;13.402;2023-05-21T02:49:02;15.40;99.90
782;DHT22;374;52.568;13.402;2023-05-21T02:51:28;15.40;99.90
782;DHT22;374;52.568;13.402;2023-05-21T02:53:53;15.40;99.90
782;DHT22;374;52.568;13.402;2023-05-21T02:56:18;15.40;99.90
782;DHT22;374;52.568;13.402;2023-05-21T02:58:44;15.40;99.90
782;DHT22;374;52.568;13.402;2023-05-21T03:01:10;15.40;99.90
782;DHT22;374;52.568;13.402;2023-05-21T03:03:35;15.30;99.90
782;DHT22;374;52.568;13.402;2023-05-21T03:06:01;15.40;99.90
782;DHT22;374;52.568;13.402;2023-05-21T03:08:26;15.30;99.90
782;DHT22;374;52.568;13.402;2023-05-21T03:10:52;15.40;99.90
782;DHT22;374;52.568;13.402;2023-05-21T03:13:17;15.30;99.90
782;DHT22;374;52.568;13.402;2023-05-21T03:15:42;15.30;99.90
782;DHT22;374;52.568;13.402;2023-05-21T03:18:09;15.30;99.90
782;DHT22;374;52.568;13.402;2023-05-21T03:20:34;15.30;99.90
782;DHT22;374;52.568;13.402;2023-05-21T03:23:00;15.30;99.90
782;DHT22;374;52.568;13.402;2023-05-21T03:25:29;15.30;99.90
782;DHT22;374;52.568;13.402;2023-05-21T03:27:54;15.30;99.90
782;DHT22;374;52.568;13.402;2023-05-21T03:30:20;15.30;99.90
782;DHT22;374;52.568;13.402;2023-05-21T03:32:46;15.30;99.90
782;DHT22;374;52.568;13.402;2023-05-21T03:35:11;15.30;99.90
782;DHT22;374;52.568;13.402;2023-05-21T03:37:37;15.30;99.90
782;DHT22;374;52.568;13.402;2023-05-21T03:40:03;15.30;99.90
782;DHT22;374;52.568;13.402;2023-05-21T03:42:29;15.30;99.90
782;DHT22;374;52.568;13.402;2023-05-21T03:44:54;15.30;99.90
782;DHT22;374;52.568;13.402;2023-05-21T03:47:20;15.30;99.90
782;DHT22;374;52.568;13.402;2023-05-21T03:49:45;15.30;99.90
782;DHT22;374;52.568;13.402;2023-05-21T03:52:11;15.30;99.90
782;DHT22;374;52.568;13.402;2023-05-21T03:54:36;15.30;99.90
782;DHT22;374;52.568;13.402;2023-05-21T03:57:02;15.30;99.90
782;DHT22;374;52.568;13.402;2023-05-21T03:59:27;15.30;99.90
782;DHT22;374;52.568;13.402;2023-05-21T04:01:53;15.30;99.90
782;DHT22;374;52.568;13.402;2023-05-21T04:04:18;15.30;99.90
782;DHT22;374;52.568;13.402;2023-05-21T04:06:44;15.30;99.90
782;DHT22;374;52.568;13.402;2023-05-21T04:09:09;15.30;99.90
782;DHT22;374;52.568;13.402;2023-05-21T04:11:34;15.30;99.90
782;DHT22;374;52.568;13.402;2023-05-21T04:14:00;15.40;99.90
782;DHT22;374;52.568;13.402;2023-05-21T04:16:27;15.40;99.90
782;DHT22;374;52.568;13.402;2023-05-21T04:18:52;15.40;99.90
782;DHT22;374;52.568;13.402;2023-05-21T04:21:19;15.40;99.90
782;DHT22;374;52.568;13.402;2023-05-21T04:23:45;15.40;99.90
782;DHT22;374;52.568;13.402;2023-05-21T04:26:11;15.40;99.90
782;DHT22;374;52.568;13.402;2023-05-21T04:28:37;15.40;99.90
782;DHT22;374;52.568;13.402;2023-05-21T04:31:06;15.40;99.90
782;DHT22;374;52.568;13.402;2023-05-21T04:33:33;15.40;99.90
782;DHT22;374;52.568;13.402;2023-05-21T04:36:00;15.40;99.90
782;DHT22;374;52.568;13.402;2023-05-21T04:38:25;15.40;99.90
782;DHT22;374;52.568;13.402;2023-05-21T04:40:51;15.40;99.90
782;DHT22;374;52.568;13.402;2023-05-21T04:43:17;15.50;99.90
782;DHT22;374;52.568;13.402;2023-05-21T04:45:50;15.40;99.90
782;DHT22;374;52.568;13.402;2023-05-21T04:48:15;15.50;99.90
782;DHT22;374;52.568;13.402;2023-05-21T04:50:42;15.50;99.90
782;DHT22;374;52.568;13.402;2023-05-21T04:53:07;15.50;99.90
782;DHT22;374;52.568;13.402;2023-05-21T04:55:33;15.60;99.90
782;DHT22;374;52.568;13.402;2023-05-21T04:58:06;15.70;99.90
782;DHT22;374;52.568;13.402;2023-05-21T05:00:33;15.70;99.90
782;DHT22;374;52.568;13.402;2023-05-21T05:02:58;15.70;99.90
782;DHT22;374;52.568;13.402;2023-05-21T05:05:24;15.80;99.90
782;DHT22;374;52.568;13.402;2023-05-21T05:07:49;15.80;99.90
782;DHT22;374;52.568;13.402;2023-05-21T05:10:15;15.90;99.90
782;DHT22;374;52.568;13.402;2023-05-21T05:12:41;15.90;99.90
782;DHT22;374;52.568;13.402;2023-05-21T05:15:07;16.00;99.90
782;DHT22;374;52.568;13.402;2023-05-21T05:17:32;16.00;99.90
782;DHT22;374;52.568;13.402;2023-05-21T05:19:58;16.00;99.90
782;DHT22;374;52.568;13.402;2023-05-21T05:22:24;16.10;99.90
782;DHT22;374;52.568;13.402;2023-05-21T05:24:49;16.20;99.90
782;DHT22;374;52.568;13.402;2023-05-21T05:27:15;16.20;99.90
782;DHT22;374;52.568;13.402;2023-05-21T05:29:42;16.30;99.90
782;DHT22;374;52.568;13.402;2023-05-21T05:32:08;16.30;99.90
782;DHT22;374;52.568;13.402;2023-05-21T05:34:33;16.40;99.90
782;DHT22;374;52.568;13.402;2023-05-21T05:36:59;16.40;99.90
782;DHT22;374;52.568;13.402;2023-05-21T05:39:24;16.50;99.90
782;DHT22;374;52.568;13.402;2023-05-21T05:41:50;16.50;99.90
782;DHT22;374;52.568;13.402;2023-05-21T05:44:15;16.60;99.90
782;DHT22;374;52.568;13.402;2023-05-21T05:46:41;16.60;99.90
782;DHT22;374;52.568;13.402;2023-05-21T05:49:06;16.70;99.90
782;DHT22;374;52.568;13.402;2023-05-21T05:51:32;16.70;99.90
782;DHT22;374;52.568;13.402;2023-05-21T05:53:57;16.90;99.90
782;DHT22;374;52.568;13.402;2023-05-21T05:56:23;16.90;99.90
782;DHT22;374;52.568;13.402;2023-05-21T05:58:48;16.90;99.90
782;DHT22;374;52.568;13.402;2023-05-21T06:01:13;16.90;99.90
782;DHT22;374;52.568;13.402;2023-05-21T06:03:39;17.10;99.90
782;DHT22;374;52.568;13.402;2023-05-21T06:06:04;17.10;99.90
782;DHT22;374;52.568;13.402;2023-05-21T06:08:30;17.20;99.90
782;DHT22;374;52.568;13.402;2023-05-21T06:10:55;17.30;99.90
782;DHT22;374;52.568;13.402;2023-05-21T06:13:21;17.20;99.90
782;DHT22;374;52.568;13.402;2023-05-21T06:15:46;17.30;99.90
782;DHT22;374;52.568;13.402;2023-05-21T06:18:12;17.30;99.90
782;DHT22;374;52.568;13.402;2023-05-21T06:20:37;17.40;99.90
782;DHT22;374;52.568;13.402;2023-05-21T06:23:03;17.40;99.90
782;DHT22;374;52.568;13.402;2023-05-21T06:25:28;17.50;99.90
782;DHT22;374;52.568;13.402;2023-05-21T06:27:54;17.50;99.90
782;DHT22;374;52.568;13.402;2023-05-21T06:30:21;17.50;99.90
782;DHT22;374;52.568;13.402;2023-05-21T06:32:46;17.60;99.90
782;DHT22;374;52.568;13.402;2023-05-21T06:35:12;17.60;99.90
782;DHT22;374;52.568;13.402;2023-05-21T06:37:37;17.60;99.90
782;DHT22;374;52.568;13.402;2023-05-21T06:40:03;17.60;99.90
782;DHT22;374;52.568;13.402;2023-05-21T06:42:29;17.60;99.90
782;DHT22;374;52.568;13.402;2023-05-21T06:44:55;17.70;99.90
782;DHT22;374;52.568;13.402;2023-05-21T06:47:20;17.80;99.90
782;DHT22;374;52.568;13.402;2023-05-21T06:49:45;17.80;99.90
782;DHT22;374;52.568;13.402;2023-05-21T06:52:11;17.80;99.90
782;DHT22;374;52.568;13.402;2023-05-21T06:54:37;17.80;99.90
782;DHT22;374;52.568;13.402;2023-05-21T06:57:02;18.00;99.90
782;DHT22;374;52.568;13.402;2023-05-21T06:59:28;18.10;99.90
782;DHT22;374;52.568;13.402;2023-05-21T07:01:53;18.10;99.90
782;DHT22;374;52.568;13.402;2023-05-21T07:04:18;18.20;99.90
782;DHT22;374;52.568;13.402;2023-05-21T07:06:44;18.20;99.90
782;DHT22;374;52.568;13.402;2023-05-21T07:09:09;18.20;99.90
782;DHT22;374;52.568;13.402;2023-05-21T07:11:35;18.20;99.90
782;DHT22;374;52.568;13.402;2023-05-21T07:14:00;18.30;99.90
782;DHT22;374;52.568;13.402;2023-05-21T07:16:26;18.30;99.90
782;DHT22;374;52.568;13.402;2023-05-21T07:18:52;18.30;99.90
782;DHT22;374;52.568;13.402;2023-05-21T07:21:17;18.40;99.90
782;DHT22;374;52.568;13.402;2023-05-21T07:23:42;18.40;99.90
782;DHT22;374;52.568;13.402;2023-05-21T07:26:09;18.50;99.90
782;DHT22;374;52.568;13.402;2023-05-21T07:28:35;18.50;99.90
782;DHT22;374;52.568;13.402;2023-05-21T07:31:00;18.50;99.90
782;DHT22;374;52.568;13.402;2023-05-21T07:33:27;18.60;99.90
782;DHT22;374;52.568;13.402;2023-05-21T07:35:52;18.70;99.90
782;DHT22;374;52.568;13.402;2023-05-21T07:38:18;18.90;99.90
782;DHT22;374;52.568;13.402;2023-05-21T07:40:43;19.20;99.90
782;DHT22;374;52.568;13.402;2023-05-21T07:43:08;19.30;99.90
782;DHT22;374;52.568;13.402;2023-05-21T07:45:34;19.50;99.90
782;DHT22;374;52.568;13.402;2023-05-21T07:48:00;19.70;99.90
782;DHT22;374;52.568;13.402;2023-05-21T07:50:25;19.80;99.90
782;DHT22;374;52.568;13.402;2023-05-21T07:52:51;20.00;99.90
782;DHT22;374;52.568;13.402;2023-05-21T07:55:16;20.20;99.90
782;DHT22;374;52.568;13.402;2023-05-21T07:57:42;20.40;99.90
782;DHT22;374;52.568;13.402;2023-05-21T08:00:07;20.50;99.90
782;DHT22;374;52.568;13.402;2023-05-21T08:02:33;20.60;99.90
782;DHT22;374;52.568;13.402;2023-05-21T08:04:59;20.80;99.90
782;DHT22;374;52.568;13.402;2023-05-21T08:07:26;20.90;99.90
782;DHT22;374;52.568;13.402;2023-05-21T08:09:52;21.10;99.90
782;DHT22;374;52.568;13.402;2023-05-21T08:12:18;21.20;99.90
782;DHT22;374;52.568;13.402;2023-05-21T08:14:44;21.30;99.90
782;DHT22;374;52.568;13.402;2023-05-21T08:17:09;21.50;99.90
782;DHT22;374;52.568;13.402;2023-05-21T08:19:38;21.60;99.90
782;DHT22;374;52.568;13.402;2023-05-21T08:22:03;21.80;99.90
782;DHT22;374;52.568;13.402;2023-05-21T08:24:31;21.90;99.90
782;DHT22;374;52.568;13.402;2023-05-21T08:26:56;22.10;99.60
782;DHT22;374;52.568;13.402;2023-05-21T08:29:22;22.20;98.40
782;DHT22;374;52.568;13.402;2023-05-21T08:31:47;22.30;98.50
782;DHT22;374;52.568;13.402;2023-05-21T08:34:12;22.40;98.50
782;DHT22;374;52.568;13.402;2023-05-21T08:36:38;22.70;98.00
782;DHT22;374;52.568;13.402;2023-05-21T08:39:07;22.80;97.20
782;DHT22;374;52.568;13.402;2023-05-21T08:41:34;22.90;97.10
782;DHT22;374;52.568;13.402;2023-05-21T08:44:01;22.90;97.10
782;DHT22;374;52.568;13.402;2023-05-21T08:46:32;23.10;96.00
782;DHT22;374;52.568;13.402;2023-05-21T08:49:01;23.20;96.10
782;DHT22;374;52.568;13.402;2023-05-21T08:51:28;23.40;95.60
782;DHT22;374;52.568;13.402;2023-05-21T08:53:54;23.50;95.40
782;DHT22;374;52.568;13.402;2023-05-21T08:56:21;23.60;95.40
782;DHT22;374;52.568;13.402;2023-05-21T08:58:47;23.60;95.00
782;DHT22;374;52.568;13.402;2023-05-21T09:01:13;23.80;94.50
782;DHT22;374;52.568;13.402;2023-05-21T09:03:40;23.80;93.20
782;DHT22;374;52.568;13.402;2023-05-21T09:06:09;24.00;93.10
782;DHT22;374;52.568;13.402;2023-05-21T09:08:37;23.90;92.70
782;DHT22;374;52.568;13.402;2023-05-21T09:11:07;23.90;92.30
782;DHT22;374;52.568;13.402;2023-05-21T09:13:33;23.80;92.30
782;DHT22;374;52.568;13.402;2023-05-21T09:15:59;23.90;91.90
782;DHT22;374;52.568;13.402;2023-05-21T09:18:25;23.90;91.90
782;DHT22;374;52.568;13.402;2023-05-21T09:20:51;24.00;91.70
782;DHT22;374;52.568;13.402;2023-05-21T09:23:18;24.10;91.50
782;DHT22;374;52.568;13.402;2023-05-21T09:25:45;24.20;91.60
782;DHT22;374;52.568;13.402;2023-05-21T09:28:12;24.20;91.40
782;DHT22;374;52.568;13.402;2023-05-21T09:30:43;24.30;91.10
782;DHT22;374;52.568;13.402;2023-05-21T09:33:09;24.40;90.80
782;DHT22;374;52.568;13.402;2023-05-21T09:35:36;24.50;90.90
782;DHT22;374;52.568;13.402;2023-05-21T09:38:07;24.90;90.30
782;DHT22;374;52.568;13.402;2023-05-21T09:40:33;25.20;88.90
782;DHT22;374;52.568;13.402;2023-05-21T09:42:59;25.50;86.10
782;DHT22;374;52.568;13.402;2023-05-21T09:45:26;25.70;85.00
782;DHT22;374;52.568;13.402;2023-05-21T09:47:53;25.90;85.40
782;DHT22;374;52.568;13.402;2023-05-21T09:50:23;26.20;83.90
782;DHT22;374;52.568;13.402;2023-05-21T09:52:50;26.50;82.50
782;DHT22;374;52.568;13.402;2023-05-21T09:55:18;26.70;79.70
782;DHT22;374;52.568;13.402;2023-05-21T09:57:47;26.90;79.40
782;DHT22;374;52.568;13.402;2023-05-21T10:00:26;27.10;76.80
782;DHT22;374;52.568;13.402;2023-05-21T10:03:06;27.00;76.20
782;DHT22;374;52.568;13.402;2023-05-21T10:05:33;27.10;75.80
782;DHT22;374;52.568;13.402;2023-05-21T10:08:00;27.50;76.10
782;DHT22;374;52.568;13.402;2023-05-21T10:10:27;27.30;73.90
782;DHT22;374;52.568;13.402;2023-05-21T10:13:07;27.60;73.60
782;DHT22;374;52.568;13.402;2023-05-21T10:15:37;27.60;73.00
782;DHT22;374;52.568;13.402;2023-05-21T10:18:03;27.60;73.20
782;DHT22;374;52.568;13.402;2023-05-21T10:20:29;27.60;71.80
782;DHT22;374;52.568;13.402;2023-05-21T10:22:55;27.30;72.60
782;DHT22;374;52.568;13.402;2023-05-21T10:25:22;26.90;73.80
782;DHT22;374;52.568;13.402;2023-05-21T10:27:47;26.40;75.10
782;DHT22;374;52.568;13.402;2023-05-21T10:30:13;25.90;76.70
782;DHT22;374;52.568;13.402;2023-05-21T10:32:39;25.80;77.70
782;DHT22;374;52.568;13.402;2023-05-21T10:35:06;25.70;78.10
782;DHT22;374;52.568;13.402;2023-05-21T10:37:33;25.50;79.20
782;DHT22;374;52.568;13.402;2023-05-21T10:39:58;25.30;78.70
782;DHT22;374;52.568;13.402;2023-05-21T10:45:21;25.10;79.50
782;DHT22;374;52.568;13.402;2023-05-21T10:48:19;25.00;80.00
782;DHT22;374;52.568;13.402;2023-05-21T10:51:06;24.90;80.30
782;DHT22;374;52.568;13.402;2023-05-21T10:53:54;24.80;81.90
782;DHT22;374;52.568;13.402;2023-05-21T11:01:49;24.70;81.20
782;DHT22;374;52.568;13.402;2023-05-21T11:04:25;24.70;80.80
782;DHT22;374;52.568;13.402;2023-05-21T11:06:50;24.60;80.50
782;DHT22;374;52.568;13.402;2023-05-21T11:09:16;24.60;80.30
782;DHT22;374;52.568;13.402;2023-05-21T11:11:43;24.60;81.30
782;DHT22;374;52.568;13.402;2023-05-21T11:14:30;24.60;81.00
782;DHT22;374;52.568;13.402;2023-05-21T11:17:36;24.60;81.20
782;DHT22;374;52.568;13.402;2023-05-21T11:20:12;24.60;80.70
782;DHT22;374;52.568;13.402;2023-05-21T11:22:41;24.60;81.90
782;DHT22;374;52.568;13.402;2023-05-21T11:25:06;24.60;81.40
782;DHT22;374;52.568;13.402;2023-05-21T11:27:33;24.60;80.20
782;DHT22;374;52.568;13.402;2023-05-21T11:30:00;24.60;80.30
782;DHT22;374;52.568;13.402;2023-05-21T11:32:27;24.70;81.00
782;DHT22;374;52.568;13.402;2023-05-21T11:34:59;24.70;79.10
782;DHT22;374;52.568;13.402;2023-05-21T11:37:26;24.70;78.80
782;DHT22;374;52.568;13.402;2023-05-21T11:39:53;24.80;78.00
782;DHT22;374;52.568;13.402;2023-05-21T11:42:29;24.90;77.50
782;DHT22;374;52.568;13.402;2023-05-21T11:44:56;24.90;76.00
782;DHT22;374;52.568;13.402;2023-05-21T11:47:23;24.90;75.40
782;DHT22;374;52.568;13.402;2023-05-21T11:49:50;24.90;74.90
782;DHT22;374;52.568;13.402;2023-05-21T11:52:16;24.80;74.50
782;DHT22;374;52.568;13.402;2023-05-21T11:54:45;24.90;74.30
782;DHT22;374;52.568;13.402;2023-05-21T11:57:13;24.80;74.10
782;DHT22;374;52.568;13.402;2023-05-21T11:59:43;24.80;74.00
782;DHT22;374;52.568;13.402;2023-05-21T12:02:16;24.80;73.50
782;DHT22;374;52.568;13.402;2023-05-21T12:04:44;24.90;73.70
782;DHT22;374;52.568;13.402;2023-05-21T12:07:11;24.90;74.20
782;DHT22;374;52.568;13.402;2023-05-21T12:09:44;25.00;73.30
782;DHT22;374;52.568;13.402;2023-05-21T12:12:12;25.10;72.50
782;DHT22;374;52.568;13.402;2023-05-21T12:14:42;25.10;72.10
782;DHT22;374;52.568;13.402;2023-05-21T12:17:08;25.00;71.70
782;DHT22;374;52.568;13.402;2023-05-21T12:19:35;25.10;72.20
782;DHT22;374;52.568;13.402;2023-05-21T12:22:02;25.00;72.00
782;DHT22;374;52.568;13.402;2023-05-21T12:24:28;25.00;71.70
782;DHT22;374;52.568;13.402;2023-05-21T12:26:55;24.90;71.40
782;DHT22;374;52.568;13.402;2023-05-21T12:29:26;25.00;71.90
782;DHT22;374;52.568;13.402;2023-05-21T12:31:52;25.00;71.60
782;DHT22;374;52.568;13.402;2023-05-21T12:37:02;25.00;72.80
782;DHT22;374;52.568;13.402;2023-05-21T12:39:30;25.00;72.00
782;DHT22;374;52.568;13.402;2023-05-21T12:41:55;25.10;71.70
782;DHT22;374;52.568;13.402;2023-05-21T12:44:21;25.10;71.20
782;DHT22;374;52.568;13.402;2023-05-21T12:46:46;25.10;71.00
782;DHT22;374;52.568;13.402;2023-05-21T12:49:32;25.10;71.00
782;DHT22;374;52.568;13.402;2023-05-21T12:51:58;25.00;72.00
782;DHT22;374;52.568;13.402;2023-05-21T12:54:32;25.00;71.50
782;DHT22;374;52.568;13.402;2023-05-21T12:57:05;25.00;71.30
782;DHT22;374;52.568;13.402;2023-05-21T13:02:20;25.00;72.70
782;DHT22;374;52.568;13.402;2023-05-21T13:04:46;25.00;71.50
782;DHT22;374;52.568;13.402;2023-05-21T13:07:13;25.00;71.80
782;DHT22;374;52.568;13.402;2023-05-21T13:09:38;25.00;72.20
782;DHT22;374;52.568;13.402;2023-05-21T13:12:04;25.10;71.40
782;DHT22;374;52.568;13.402;2023-05-21T13:14:29;25.10;71.80
782;DHT22;374;52.568;13.402;2023-05-21T13:16:55;25.10;71.50
782;DHT22;374;52.568;13.402;2023-05-21T13:19:21;25.20;71.30
782;DHT22;374;52.568;13.402;2023-05-21T13:21:46;25.20;71.00
782;DHT22;374;52.568;13.402;2023-05-21T13:24:12;25.10;71.50
782;DHT22;374;52.568;13.402;2023-05-21T13:26:37;25.20;70.80
782;DHT22;374;52.568;13.402;2023-05-21T13:29:03;25.20;70.40
782;DHT22;374;52.568;13.402;2023-05-21T13:31:28;25.20;71.20
782;DHT22;374;52.568;13.402;2023-05-21T13:33:54;25.30;70.20
782;DHT22;374;52.568;13.402;2023-05-21T13:36:19;25.30;70.20
782;DHT22;374;52.568;13.402;2023-05-21T13:38:44;25.20;70.10
782;DHT22;374;52.568;13.402;2023-05-21T13:41:10;25.30;70.20
782;DHT22;374;52.568;13.402;2023-05-21T13:43:35;25.30;69.80
782;DHT22;374;52.568;13.402;2023-05-21T13:46:02;25.30;69.90
782;DHT22;374;52.568;13.402;2023-05-21T13:48:27;25.30;69.90
782;DHT22;374;52.568;13.402;2023-05-21T13:50:53;25.20;70.00
782;DHT22;374;52.568;13.402;2023-05-21T13:53:18;25.20;69.80
782;DHT22;374;52.568;13.402;2023-05-21T13:55:44;25.20;69.50
782;DHT22;374;52.568;13.402;2023-05-21T13:58:09;25.30;68.90
782;DHT22;374;52.568;13.402;2023-05-21T14:00:35;25.30;68.50
782;DHT22;374;52.568;13.402;2023-05-21T14:03:00;25.20;68.60
782;DHT22;374;52.568;13.402;2023-05-21T14:05:26;25.20;68.70
782;DHT22;374;52.568;13.402;2023-05-21T14:07:51;25.30;68.00
782;DHT22;374;52.568;13.402;2023-05-21T14:10:17;25.40;68.20
782;DHT22;374;52.568;13.402;2023-05-21T14:12:42;25.30;68.10
782;DHT22;374;52.568;13.402;2023-05-21T14:15:10;25.30;67.30
782;DHT22;374;52.568;13.402;2023-05-21T14:17:36;25.30;68.10
782;DHT22;374;52.568;13.402;2023-05-21T14:20:05;25.30;67.80
782;DHT22;374;52.568;13.402;2023-05-21T14:22:30;25.20;67.50
782;DHT22;374;52.568;13.402;2023-05-21T14:24:56;25.20;67.40
782;DHT22;374;52.568;13.402;2023-05-21T14:27:21;25.20;68.00
782;DHT22;374;52.568;13.402;2023-05-21T14:29:47;25.30;67.60
782;DHT22;374;52.568;13.402;2023-05-21T14:32:12;25.30;67.80
782;DHT22;374;52.568;13.402;2023-05-21T14:34:37;25.30;68.30
782;DHT22;374;52.568;13.402;2023-05-21T14:37:04;25.30;68.20
782;DHT22;374;52.568;13.402;2023-05-21T14:39:30;25.30;67.20
782;DHT22;374;52.568;13.402;2023-05-21T14:41:55;25.30;67.10
782;DHT22;374;52.568;13.402;2023-05-21T14:44:21;25.30;66.70
782;DHT22;374;52.568;13.402;2023-05-21T14:46:46;25.20;66.50
782;DHT22;374;52.568;13.402;2023-05-21T14:49:12;25.20;66.50
782;DHT22;374;52.568;13.402;2023-05-21T14:51:38;25.20;66.70
782;DHT22;374;52.568;13.402;2023-05-21T14:54:05;25.20;67.10
782;DHT22;374;52.568;13.402;2023-05-21T14:56:30;25.10;67.80
782;DHT22;374;52.568;13.402;2023-05-21T14:58:55;25.30;67.80
782;DHT22;374;52.568;13.402;2023-05-21T15:01:21;25.20;67.30
782;DHT22;374;52.568;13.402;2023-05-21T15:03:47;25.30;66.50
782;DHT22;374;52.568;13.402;2023-05-21T15:06:13;25.30;66.30
782;DHT22;374;52.568;13.402;2023-05-21T15:08:38;25.30;65.70
782;DHT22;374;52.568;13.402;2023-05-21T15:11:04;25.30;65.90
782;DHT22;374;52.568;13.402;2023-05-21T15:13:31;25.30;65.70
782;DHT22;374;52.568;13.402;2023-05-21T15:15:57;25.30;66.20
782;DHT22;374;52.568;13.402;2023-05-21T15:18:22;25.30;65.50
782;DHT22;374;52.568;13.402;2023-05-21T15:20:49;25.30;65.70
782;DHT22;374;52.568;13.402;2023-05-21T15:23:18;25.30;65.00
782;DHT22;374;52.568;13.402;2023-05-21T15:25:44;25.30;65.20
782;DHT22;374;52.568;13.402;2023-05-21T15:28:09;25.30;65.10
782;DHT22;374;52.568;13.402;2023-05-21T15:30:36;25.30;65.60
782;DHT22;374;52.568;13.402;2023-05-21T15:33:01;25.30;65.80
782;DHT22;374;52.568;13.402;2023-05-21T15:35:27;25.30;64.90
782;DHT22;374;52.568;13.402;2023-05-21T15:37:52;25.30;65.20
782;DHT22;374;52.568;13.402;2023-05-21T15:40:18;25.30;65.00
782;DHT22;374;52.568;13.402;2023-05-21T15:42:43;25.20;64.30
782;DHT22;374;52.568;13.402;2023-05-21T15:45:09;25.20;64.60
782;DHT22;374;52.568;13.402;2023-05-21T15:47:35;25.20;64.20
782;DHT22;374;52.568;13.402;2023-05-21T15:50:00;25.20;63.90
782;DHT22;374;52.568;13.402;2023-05-21T15:52:26;25.10;64.00
782;DHT22;374;52.568;13.402;2023-05-21T15:54:51;25.20;64.00
782;DHT22;374;52.568;13.402;2023-05-21T15:57:17;25.20;63.20
782;DHT22;374;52.568;13.402;2023-05-21T15:59:43;25.10;64.00
782;DHT22;374;52.568;13.402;2023-05-21T16:02:08;25.10;64.50
782;DHT22;374;52.568;13.402;2023-05-21T16:04:34;25.10;64.30
782;DHT22;374;52.568;13.402;2023-05-21T16:07:00;25.10;63.90
782;DHT22;374;52.568;13.402;2023-05-21T16:09:26;25.10;64.10
782;DHT22;374;52.568;13.402;2023-05-21T16:11:51;25.10;64.50
782;DHT22;374;52.568;13.402;2023-05-21T16:14:17;25.00;64.10
782;DHT22;374;52.568;13.402;2023-05-21T16:16:42;25.00;64.30
782;DHT22;374;52.568;13.402;2023-05-21T16:19:08;25.00;63.60
782;DHT22;374;52.568;13.402;2023-05-21T16:21:33;25.00;63.50
782;DHT22;374;52.568;13.402;2023-05-21T16:23:59;25.00;64.10
782;DHT22;374;52.568;13.402;2023-05-21T16:26:24;24.90;63.20
782;DHT22;374;52.568;13.402;2023-05-21T16:28:50;25.00;62.90
782;DHT22;374;52.568;13.402;2023-05-21T16:31:16;24.90;62.70